createdAt,value
2017-06-01T00:00:00.751Z,82.93
2017-06-01T00:01:00.734Z,83.03
2017-06-01T00:02:00.725Z,83.31
2017-06-01T00:03:00.400Z,83.7
2017-06-01T00:04:00.681Z,83.31
2017-06-01T00:05:00.671Z,83.6
2017-06-01T00:06:00.347Z,83.47
2017-06-01T00:07:00.637Z,83.47
2017-06-01T00:08:00.671Z,83.56
2017-06-01T00:09:00.604Z,83.94
2017-06-01T00:10:00.592Z,83.94
2017-06-01T00:11:00.623Z,84.14
2017-06-01T00:12:00.551Z,84.52
2017-06-01T00:13:00.541Z,84.71
2017-06-01T00:14:00.545Z,84.81
2017-06-01T00:15:00.202Z,84.61
2017-06-01T00:16:00.491Z,84.14
2017-06-01T00:17:00.475Z,84.42
2017-06-01T00:18:00.469Z,84.52
2017-06-01T00:19:00.442Z,84.04
2017-06-01T00:20:00.119Z,83.94
2017-06-01T00:21:00.401Z,83.75
2017-06-01T00:22:00.083Z,83.65
2017-06-01T00:23:00.374Z,83.85
2017-06-01T00:24:00.059Z,84.42
2017-06-01T00:25:00.038Z,84.04
2017-06-01T00:26:00.344Z,84.23
2017-06-01T00:27:00.312Z,84.52
2017-06-01T00:28:00.292Z,84.91
2017-06-01T00:29:00.283Z,84.61
2017-06-01T00:29:59.962Z,84.42
2017-06-01T00:31:00.242Z,84.61
2017-06-01T00:32:00.232Z,85.28
2017-06-01T00:33:00.208Z,84.52
2017-06-01T00:33:59.895Z,84.71
2017-06-01T00:34:59.871Z,85.28
2017-06-01T00:36:00.162Z,84.61
2017-06-01T00:36:59.846Z,84.81
2017-06-01T00:38:00.128Z,85.1
2017-06-01T00:39:00.114Z,84.81
2017-06-01T00:40:00.102Z,84.52
2017-06-01T00:41:00.092Z,84.81
2017-06-01T00:42:00.073Z,85.19
2017-06-01T00:42:59.757Z,84.71
2017-06-01T00:43:59.722Z,84.86
2017-06-01T00:44:59.713Z,85.1
2017-06-01T00:46:00.002Z,84.81
2017-06-01T00:46:59.994Z,85
2017-06-01T00:47:59.962Z,85.1
2017-06-01T00:48:59.948Z,85.19
2017-06-01T00:49:59.931Z,85
2017-06-01T00:50:59.911Z,85.19
2017-06-01T00:51:59.903Z,85.19
2017-06-01T00:52:59.883Z,85.19
2017-06-01T00:53:59.861Z,85.19
2017-06-01T00:54:59.543Z,85.28
2017-06-01T00:55:59.844Z,84.81
2017-06-01T00:56:59.511Z,85.05
2017-06-01T00:57:59.808Z,85.05
2017-06-01T00:58:59.471Z,85.53
2017-06-01T00:59:59.464Z,85.38
2017-06-01T01:00:59.751Z,85.34
2017-06-01T01:01:59.732Z,85.44
2017-06-01T01:02:59.733Z,85.53
2017-06-01T01:03:59.451Z,85.38
2017-06-01T01:04:59.690Z,85.38
2017-06-01T01:05:59.686Z,85.34
2017-06-01T01:06:59.661Z,85.92
2017-06-01T01:07:59.632Z,85.82
2017-06-01T01:08:59.613Z,86.11
2017-06-01T01:09:59.599Z,85.72
2017-06-01T01:10:59.601Z,86.01
2017-06-01T01:11:59.562Z,86.21
2017-06-01T01:12:59.562Z,86.4
2017-06-01T01:13:59.224Z,86.78
2017-06-01T01:14:59.214Z,86.78
2017-06-01T01:15:59.191Z,86.97
2017-06-01T01:16:59.480Z,86.88
2017-06-01T01:17:59.158Z,87.41
2017-06-01T01:18:59.145Z,87.45
2017-06-01T01:19:59.432Z,87.02
2017-06-01T01:20:59.412Z,87.21
2017-06-01T01:21:59.096Z,87.12
2017-06-01T01:22:59.385Z,87.21
2017-06-01T01:23:59.372Z,87.26
2017-06-01T01:24:59.041Z,87.35
2017-06-01T01:25:59.330Z,87.35
2017-06-01T01:26:59.018Z,86.97
2017-06-01T01:27:58.995Z,86.78
2017-06-01T01:28:58.977Z,86.68
2017-06-01T01:29:59.273Z,87.12
2017-06-01T01:30:59.253Z,87.31
2017-06-01T01:31:58.935Z,87.41
2017-06-01T01:32:59.224Z,88.17
2017-06-01T01:33:59.191Z,88.37
2017-06-01T01:34:59.181Z,88.27
2017-06-01T01:35:58.861Z,88.17
2017-06-01T01:36:59.150Z,88.17
2017-06-01T01:37:59.130Z,87.88
2017-06-01T01:38:59.121Z,88.27
2017-06-01T01:39:59.111Z,87.98
2017-06-01T01:40:59.081Z,87.6
2017-06-01T01:41:59.070Z,88.17
2017-06-01T01:42:59.051Z,88.08
2017-06-01T01:43:59.093Z,87.98
2017-06-01T01:44:58.722Z,87.98
2017-06-01T01:45:58.702Z,88.17
2017-06-01T01:46:58.984Z,87.98
2017-06-01T01:47:59.060Z,88.17
2017-06-01T01:48:58.938Z,88.17
2017-06-01T01:49:58.627Z,88.17
2017-06-01T01:50:58.911Z,88.37
2017-06-01T01:51:58.651Z,88.17
2017-06-01T01:52:58.885Z,87.98
2017-06-01T01:53:58.557Z,88.17
2017-06-01T01:54:58.530Z,88.17
2017-06-01T01:55:58.892Z,88.37
2017-06-01T01:56:58.860Z,88.94
2017-06-01T01:57:58.867Z,88.94
2017-06-01T01:58:58.775Z,88.46
2017-06-01T01:59:58.758Z,88.56
2017-06-01T02:00:58.741Z,88.46
2017-06-01T02:01:58.422Z,88.84
2017-06-01T02:02:58.721Z,89.04
2017-06-01T02:03:58.789Z,88.42
2017-06-01T02:04:58.363Z,89.18
2017-06-01T02:05:58.719Z,89.37
2017-06-01T02:06:58.333Z,89.86
2017-06-01T02:07:58.694Z,89.95
2017-06-01T02:08:58.671Z,90.33
2017-06-01T02:09:58.651Z,90.62
2017-06-01T02:10:58.266Z,90.72
2017-06-01T02:11:58.620Z,90.62
2017-06-01T02:12:58.635Z,90.53
2017-06-01T02:13:58.533Z,90.53
2017-06-01T02:14:58.550Z,90.53
2017-06-01T02:15:58.504Z,90.53
2017-06-01T02:16:58.529Z,90.53
2017-06-01T02:17:58.485Z,91
2017-06-01T02:18:58.124Z,90.91
2017-06-01T02:19:58.509Z,90.72
2017-06-01T02:20:58.451Z,90.91
2017-06-01T02:21:58.385Z,90.91
2017-06-01T02:22:58.054Z,91
2017-06-01T02:23:58.091Z,90.72
2017-06-01T02:24:58.019Z,90.91
2017-06-01T02:25:58.310Z,91.19
2017-06-01T02:26:58.340Z,91.19
2017-06-01T02:27:58.292Z,91.58
2017-06-01T02:28:58.310Z,91.29
2017-06-01T02:29:58.240Z,91.58
2017-06-01T02:30:57.912Z,91.58
2017-06-01T02:31:58.209Z,91.58
2017-06-01T02:32:57.879Z,90.91
2017-06-01T02:33:58.172Z,91.49
2017-06-01T02:34:58.163Z,91.19
2017-06-01T02:35:57.837Z,91.77
2017-06-01T02:36:57.807Z,91.53
2017-06-01T02:37:57.794Z,91.72
2017-06-01T02:38:57.777Z,91.92
2017-06-01T02:39:57.759Z,91.92
2017-06-01T02:40:58.060Z,92.01
2017-06-01T02:41:58.035Z,91.92
2017-06-01T02:42:57.715Z,91.77
2017-06-01T02:43:58.000Z,91.92
2017-06-01T02:44:57.675Z,91.82
2017-06-01T02:45:57.969Z,91.86
2017-06-01T02:46:57.950Z,91.82
2017-06-01T02:47:57.918Z,91.82
2017-06-01T02:48:57.916Z,91.92
2017-06-01T02:49:57.901Z,91.53
2017-06-01T02:50:57.581Z,91.58
2017-06-01T02:51:57.882Z,91.96
2017-06-01T02:52:57.845Z,91.82
2017-06-01T02:53:57.831Z,91.72
2017-06-01T02:54:57.813Z,91.53
2017-06-01T02:55:57.791Z,92.4
2017-06-01T02:56:57.471Z,92.58
2017-06-01T02:57:57.751Z,92.11
2017-06-01T02:58:57.751Z,91.72
2017-06-01T02:59:57.719Z,91.53
2017-06-01T03:00:57.709Z,92.49
2017-06-01T03:01:57.689Z,92.11
2017-06-01T03:02:57.673Z,92.01
2017-06-01T03:03:57.665Z,92.11
2017-06-01T03:04:57.658Z,92.68
2017-06-01T03:05:57.310Z,92.68
2017-06-01T03:06:57.597Z,92.49
2017-06-01T03:07:57.274Z,92.49
2017-06-01T03:08:57.565Z,92.78
2017-06-01T03:09:57.235Z,93.35
2017-06-01T03:10:57.530Z,93.16
2017-06-01T03:11:57.521Z,92.97
2017-06-01T03:12:57.491Z,92.78
2017-06-01T03:13:57.220Z,93.35
2017-06-01T03:14:57.462Z,93.35
2017-06-01T03:15:57.447Z,92.78
2017-06-01T03:16:57.419Z,93.26
2017-06-01T03:17:57.103Z,93.45
2017-06-01T03:18:57.390Z,93.35
2017-06-01T03:19:57.370Z,93.07
2017-06-01T03:20:57.349Z,92.97
2017-06-01T03:21:57.341Z,93.07
2017-06-01T03:22:57.318Z,93.07
2017-06-01T03:23:57.299Z,93.26
2017-06-01T03:24:57.290Z,93.16
2017-06-01T03:25:57.272Z,92.87
2017-06-01T03:26:56.947Z,93.35
2017-06-01T03:27:57.229Z,93.26
2017-06-01T03:28:57.210Z,92.97
2017-06-01T03:29:56.891Z,93.26
2017-06-01T03:30:57.179Z,93.07
2017-06-01T03:31:56.850Z,93.16
2017-06-01T03:32:57.138Z,93.07
2017-06-01T03:33:56.830Z,93.35
2017-06-01T03:34:56.801Z,93.74
2017-06-01T03:35:57.089Z,93.45
2017-06-01T03:36:56.760Z,93.83
2017-06-01T03:37:57.050Z,93.64
2017-06-01T03:38:57.040Z,93.93
2017-06-01T03:39:56.710Z,93.64
2017-06-01T03:40:56.690Z,93.83
2017-06-01T03:41:56.671Z,93.93
2017-06-01T03:42:56.671Z,93.93
2017-06-01T03:43:56.948Z,93.54
2017-06-01T03:44:56.937Z,94.02
2017-06-01T03:45:56.601Z,93.45
2017-06-01T03:46:56.896Z,93.93
2017-06-01T03:47:56.888Z,94.12
2017-06-01T03:48:56.548Z,93.83
2017-06-01T03:49:56.850Z,94.12
2017-06-01T03:50:56.520Z,93.93
2017-06-01T03:51:56.808Z,93.74
2017-06-01T03:52:56.801Z,93.74
2017-06-01T03:53:56.770Z,93.64
2017-06-01T03:54:56.750Z,93.74
2017-06-01T03:55:56.428Z,93.74
2017-06-01T03:56:56.750Z,94.21
2017-06-01T03:57:56.388Z,94.4
2017-06-01T03:58:56.676Z,94.5
2017-06-01T03:59:56.660Z,94.31
2017-06-01T04:00:56.660Z,94.4
2017-06-01T04:01:56.324Z,94.21
2017-06-01T04:02:56.609Z,94.21
2017-06-01T04:03:56.600Z,94.12
2017-06-01T04:04:56.269Z,94.21
2017-06-01T04:05:56.559Z,93.83
2017-06-01T04:06:56.229Z,94.21
2017-06-01T04:07:56.526Z,94.21
2017-06-01T04:08:56.223Z,94.12
2017-06-01T04:09:56.510Z,94.5
2017-06-01T04:10:56.246Z,94.21
2017-06-01T04:11:56.456Z,94.21
2017-06-01T04:12:56.436Z,94.31
2017-06-01T04:13:56.417Z,94.12
2017-06-01T04:14:56.425Z,94.21
2017-06-01T04:15:56.384Z,94.21
2017-06-01T04:16:56.381Z,94.31
2017-06-01T04:17:56.361Z,93.74
2017-06-01T04:18:56.025Z,94.5
2017-06-01T04:19:56.307Z,94.02
2017-06-01T04:20:56.300Z,93.93
2017-06-01T04:21:56.273Z,94.21
2017-06-01T04:22:56.262Z,94.4
2017-06-01T04:23:55.928Z,94.02
2017-06-01T04:24:56.231Z,94.12
2017-06-01T04:25:55.894Z,93.93
2017-06-01T04:26:55.880Z,94.5
2017-06-01T04:27:56.168Z,94.69
2017-06-01T04:28:55.851Z,94.12
2017-06-01T04:29:55.825Z,94.12
2017-06-01T04:30:55.810Z,94.12
2017-06-01T04:31:56.097Z,94.5
2017-06-01T04:32:56.099Z,94.12
2017-06-01T04:33:55.760Z,94.69
2017-06-01T04:34:56.062Z,93.93
2017-06-01T04:35:55.727Z,94.5
2017-06-01T04:36:56.009Z,93.64
2017-06-01T04:37:56.058Z,94.6
2017-06-01T04:38:55.982Z,94.6
2017-06-01T04:39:55.971Z,94.31
2017-06-01T04:40:55.942Z,94.02
2017-06-01T04:41:55.920Z,94.79
2017-06-01T04:42:55.923Z,94.31
2017-06-01T04:43:55.580Z,94.89
2017-06-01T04:44:55.867Z,94.21
2017-06-01T04:45:55.550Z,93.74
2017-06-01T04:46:55.837Z,93.93
2017-06-01T04:47:55.817Z,94.21
2017-06-01T04:48:55.797Z,94.21
2017-06-01T04:49:55.789Z,94.5
2017-06-01T04:50:55.758Z,93.93
2017-06-01T04:51:55.747Z,93.93
2017-06-01T04:52:55.428Z,94.02
2017-06-01T04:53:55.721Z,94.21
2017-06-01T04:54:55.690Z,93.93
2017-06-01T04:55:55.376Z,94.74
2017-06-01T04:56:55.351Z,93.74
2017-06-01T04:57:55.648Z,94.12
2017-06-01T04:58:55.618Z,94.98
2017-06-01T04:59:55.608Z,93.64
2017-06-01T05:00:55.589Z,93.83
2017-06-01T05:01:55.581Z,94.12
2017-06-01T05:02:55.553Z,94.21
2017-06-01T05:03:55.538Z,94.4
2017-06-01T05:04:55.210Z,93.93
2017-06-01T05:05:55.851Z,94.6
2017-06-01T05:06:55.499Z,94.6
2017-06-01T05:07:55.463Z,94.69
2017-06-01T05:08:55.449Z,94.98
2017-06-01T05:09:55.440Z,94.6
2017-06-01T05:10:55.421Z,94.5
2017-06-01T05:11:55.405Z,94.07
2017-06-01T05:12:55.458Z,94.07
2017-06-01T05:13:55.056Z,94.07
2017-06-01T05:14:55.353Z,94.55
2017-06-01T05:15:55.329Z,94.55
2017-06-01T05:16:55.320Z,93.98
2017-06-01T05:17:54.981Z,93.98
2017-06-01T05:18:55.278Z,94.07
2017-06-01T05:19:55.259Z,94.26
2017-06-01T05:20:54.938Z,94.17
2017-06-01T05:21:55.229Z,94.07
2017-06-01T05:22:55.216Z,94.17
2017-06-01T05:23:54.890Z,93.69
2017-06-01T05:24:55.230Z,94.17
2017-06-01T05:25:55.173Z,94.07
2017-06-01T05:26:55.160Z,94.26
2017-06-01T05:27:54.816Z,94.35
2017-06-01T05:28:54.801Z,93.59
2017-06-01T05:29:54.785Z,93.69
2017-06-01T05:30:55.133Z,93.59
2017-06-01T05:31:55.109Z,93.88
2017-06-01T05:32:54.731Z,93.98
2017-06-01T05:33:55.035Z,93.69
2017-06-01T05:34:54.719Z,93.59
2017-06-01T05:35:54.988Z,93.59
2017-06-01T05:36:54.969Z,93.11
2017-06-01T05:37:54.639Z,93.21
2017-06-01T05:38:54.941Z,92.92
2017-06-01T05:39:54.620Z,93.11
2017-06-01T05:40:54.596Z,93.3
2017-06-01T05:41:54.577Z,93.11
2017-06-01T05:42:54.558Z,93.78
2017-06-01T05:43:54.874Z,93.78
2017-06-01T05:44:54.850Z,93.88
2017-06-01T05:45:54.820Z,93.78
2017-06-01T05:46:54.897Z,93.63
2017-06-01T05:47:54.789Z,93.63
2017-06-01T05:48:54.588Z,93.35
2017-06-01T05:49:54.760Z,93.54
2017-06-01T05:50:54.729Z,93.63
2017-06-01T05:51:54.409Z,93.06
2017-06-01T05:52:54.769Z,93.35
2017-06-01T05:53:54.380Z,93.54
2017-06-01T05:54:54.761Z,92.97
2017-06-01T05:55:54.341Z,92.77
2017-06-01T05:56:54.799Z,92.1
2017-06-01T05:57:54.621Z,92.68
2017-06-01T05:58:54.692Z,92.87
2017-06-01T05:59:54.281Z,92.77
2017-06-01T06:00:54.569Z,92.68
2017-06-01T06:01:54.580Z,92.39
2017-06-01T06:02:54.610Z,92.39
2017-06-01T06:03:54.510Z,92.2
2017-06-01T06:04:54.189Z,92.44
2017-06-01T06:05:54.171Z,92.34
2017-06-01T06:06:54.155Z,92.15
2017-06-01T06:07:54.459Z,92.15
2017-06-01T06:08:54.436Z,91.96
2017-06-01T06:09:54.110Z,91.96
2017-06-01T06:10:54.399Z,91.77
2017-06-01T06:11:54.436Z,91.28
2017-06-01T06:12:54.056Z,91.86
2017-06-01T06:13:54.340Z,91.48
2017-06-01T06:14:54.326Z,91.86
2017-06-01T06:15:54.416Z,92.39
2017-06-01T06:16:53.995Z,92.34
2017-06-01T06:17:54.371Z,92.54
2017-06-01T06:18:54.251Z,92.15
2017-06-01T06:19:54.241Z,92.54
2017-06-01T06:20:54.232Z,92.24
2017-06-01T06:21:54.213Z,92.54
2017-06-01T06:22:54.201Z,92.63
2017-06-01T06:23:53.875Z,91.77
2017-06-01T06:24:54.174Z,91.57
2017-06-01T06:25:54.203Z,91.57
2017-06-01T06:26:53.824Z,91.28
2017-06-01T06:27:54.120Z,91.38
2017-06-01T06:28:53.783Z,91.57
2017-06-01T06:29:54.332Z,91.38
2017-06-01T06:30:54.064Z,92.05
2017-06-01T06:31:54.056Z,92.05
2017-06-01T06:32:54.029Z,91.67
2017-06-01T06:33:54.011Z,91.86
2017-06-01T06:34:53.994Z,92.15
2017-06-01T06:35:53.978Z,91.38
2017-06-01T06:36:53.963Z,91.52
2017-06-01T06:37:53.632Z,91.42
2017-06-01T06:38:53.932Z,91
2017-06-01T06:39:53.913Z,91
2017-06-01T06:40:53.900Z,91.24
2017-06-01T06:41:53.570Z,90.66
2017-06-01T06:42:53.859Z,91.38
2017-06-01T06:43:53.849Z,91.48
2017-06-01T06:44:53.830Z,90.71
2017-06-01T06:45:53.808Z,90.66
2017-06-01T06:46:53.803Z,91.57
2017-06-01T06:47:53.786Z,92
2017-06-01T06:48:53.771Z,91.81
2017-06-01T06:49:53.750Z,92.1
2017-06-01T06:50:53.731Z,91.05
2017-06-01T06:51:53.724Z,90.28
2017-06-01T06:52:53.699Z,90.37
2017-06-01T06:53:53.677Z,90.28
2017-06-01T06:54:53.667Z,90.28
2017-06-01T06:55:53.351Z,90.37
2017-06-01T06:56:53.644Z,90.18
2017-06-01T06:57:53.621Z,90.95
2017-06-01T06:58:53.326Z,90.9
2017-06-01T06:59:53.282Z,90.13
2017-06-01T07:00:53.581Z,90.32
2017-06-01T07:01:53.561Z,90.03
2017-06-01T07:02:53.603Z,89.75
2017-06-01T07:03:53.523Z,88.79
2017-06-01T07:04:53.504Z,90.7
2017-06-01T07:05:53.491Z,89.89
2017-06-01T07:06:53.469Z,89.69
2017-06-01T07:07:53.462Z,89.5
2017-06-01T07:08:53.453Z,89.5
2017-06-01T07:09:53.131Z,88.83
2017-06-01T07:10:53.411Z,88.06
2017-06-01T07:11:53.098Z,88.73
2017-06-01T07:12:53.384Z,88.35
2017-06-01T07:13:53.440Z,88.25
2017-06-01T07:14:53.351Z,87.19
2017-06-01T07:15:53.341Z,88.16
2017-06-01T07:16:53.317Z,89.74
2017-06-01T07:17:53.304Z,88.1
2017-06-01T07:18:53.290Z,88.3
2017-06-01T07:19:52.976Z,88.68
2017-06-01T07:20:53.262Z,86.95
2017-06-01T07:21:53.241Z,85.99
2017-06-01T07:22:53.220Z,86.95
2017-06-01T07:23:53.214Z,88.39
2017-06-01T07:24:53.206Z,87.92
2017-06-01T07:25:52.881Z,87.29
2017-06-01T07:26:53.167Z,87.92
2017-06-01T07:27:53.152Z,87.19
2017-06-01T07:28:53.144Z,87.09
2017-06-01T07:29:53.131Z,86.8
2017-06-01T07:30:53.114Z,87.09
2017-06-01T07:31:53.103Z,86.22
2017-06-01T07:32:53.090Z,87.09
2017-06-01T07:33:53.128Z,86.04
2017-06-01T07:34:52.750Z,85.69
2017-06-01T07:35:53.031Z,85.4
2017-06-01T07:36:53.022Z,84.63
2017-06-01T07:37:53.005Z,83.73
2017-06-01T07:38:52.988Z,85.21
2017-06-01T07:39:52.978Z,83.96
2017-06-01T07:40:52.961Z,85.02
2017-06-01T07:41:52.962Z,84.73
2017-06-01T07:42:52.948Z,84.06
2017-06-01T07:43:52.925Z,84.19
2017-06-01T07:44:52.900Z,84.1
2017-06-01T07:45:52.884Z,83.91
2017-06-01T07:46:52.883Z,84.1
2017-06-01T07:47:52.561Z,83.14
2017-06-01T07:48:52.846Z,83.72
2017-06-01T07:49:52.834Z,81.98
2017-06-01T07:50:52.826Z,81.88
2017-06-01T07:51:52.804Z,81.88
2017-06-01T07:52:52.796Z,82.31
2017-06-01T07:53:52.772Z,82.31
2017-06-01T07:54:52.764Z,81.73
2017-06-01T07:55:52.774Z,81.63
2017-06-01T07:56:52.738Z,81.25
2017-06-01T07:57:52.836Z,80.04
2017-06-01T07:58:52.700Z,80.81
2017-06-01T07:59:52.395Z,80.43
2017-06-01T08:00:52.689Z,80.91
2017-06-01T08:01:52.705Z,81.48
2017-06-01T08:02:52.656Z,79.85
2017-06-01T08:03:52.673Z,79.56
2017-06-01T08:04:52.622Z,79.75
2017-06-01T08:05:52.620Z,80.33
2017-06-01T08:06:52.604Z,78.69
2017-06-01T08:07:52.594Z,78.54
2017-06-01T08:08:52.576Z,78.63
2017-06-01T08:09:52.553Z,79.21
2017-06-01T08:10:52.548Z,79.66
2017-06-01T08:11:52.542Z,79.21
2017-06-01T08:12:52.693Z,79.56
2017-06-01T08:13:52.513Z,78.92
2017-06-01T08:14:52.598Z,79.89
2017-06-01T08:15:52.487Z,79.02
2017-06-01T08:16:52.563Z,78.73
2017-06-01T08:17:52.463Z,77.48
2017-06-01T08:18:52.538Z,78.25
2017-06-01T08:19:52.432Z,79.16
2017-06-01T08:20:52.462Z,77.81
2017-06-01T08:21:52.413Z,78.29
2017-06-01T08:22:52.392Z,76.2
2017-06-01T08:23:52.384Z,74.57
2017-06-01T08:24:52.371Z,75.88
2017-06-01T08:25:52.355Z,77.46
2017-06-01T08:26:52.029Z,76.68
2017-06-01T08:27:52.014Z,77.65
2017-06-01T08:28:52.305Z,78.33
2017-06-01T08:29:52.299Z,76.98
2017-06-01T08:30:52.291Z,75.95
2017-06-01T08:31:51.972Z,75.67
2017-06-01T08:32:52.271Z,76.63
2017-06-01T08:33:51.936Z,77.4
2017-06-01T08:34:52.232Z,76.28
2017-06-01T08:35:51.911Z,75.31
2017-06-01T08:36:52.203Z,74.83
2017-06-01T08:37:52.200Z,74.96
2017-06-01T08:38:52.188Z,74.77
2017-06-01T08:39:51.871Z,73.13
2017-06-01T08:40:51.857Z,74.29
2017-06-01T08:41:52.148Z,72.84
2017-06-01T08:42:52.143Z,72.64
2017-06-01T08:43:52.122Z,73.03
2017-06-01T08:44:51.801Z,73.8
2017-06-01T08:45:51.799Z,73.46
2017-06-01T08:46:52.084Z,71.42
2017-06-01T08:47:52.096Z,71.14
2017-06-01T08:48:52.071Z,71.08
2017-06-01T08:49:52.056Z,70.88
2017-06-01T08:50:51.736Z,70.2
2017-06-01T08:51:51.723Z,70.98
2017-06-01T08:52:51.720Z,70.2
2017-06-01T08:53:52.014Z,70.43
2017-06-01T08:54:52.013Z,70.04
2017-06-01T08:55:52.001Z,72.24
2017-06-01T08:56:51.982Z,71.98
2017-06-01T08:57:51.971Z,72.66
2017-06-01T08:58:51.967Z,72.11
2017-06-01T08:59:51.954Z,71.18
2017-06-01T09:00:51.935Z,68.85
2017-06-01T09:01:51.937Z,69.53
2017-06-01T09:02:51.922Z,68.89
2017-06-01T09:03:51.908Z,68.02
2017-06-01T09:04:51.602Z,67.88
2017-06-01T09:05:51.902Z,68.18
2017-06-01T09:06:51.883Z,69.43
2017-06-01T09:07:51.569Z,68.21
2017-06-01T09:08:51.565Z,68.21
2017-06-01T09:09:51.873Z,66.11
2017-06-01T09:10:51.533Z,66.6
2017-06-01T09:11:51.852Z,65.53
2017-06-01T09:12:51.527Z,66.34
2017-06-01T09:13:51.823Z,66.79
2017-06-01T09:14:51.515Z,67.37
2017-06-01T09:15:51.499Z,67.11
2017-06-01T09:16:51.804Z,65.85
2017-06-01T09:17:51.787Z,64.78
2017-06-01T09:18:51.792Z,66.02
2017-06-01T09:19:51.781Z,63.91
2017-06-01T09:20:51.780Z,65.34
2017-06-01T09:21:51.762Z,66.6
2017-06-01T09:22:51.754Z,65.66
2017-06-01T09:23:51.758Z,64.53
2017-06-01T09:24:51.747Z,65.79
2017-06-01T09:25:51.731Z,65.92
2017-06-01T09:26:51.742Z,64.49
2017-06-01T09:27:51.725Z,64.14
2017-06-01T09:28:51.725Z,62.77
2017-06-01T09:29:51.727Z,62.19
2017-06-01T09:30:51.710Z,62.07
2017-06-01T09:31:51.704Z,62.07
2017-06-01T09:32:51.694Z,62.16
2017-06-01T09:33:51.389Z,62.74
2017-06-01T09:34:51.704Z,62.16
2017-06-01T09:35:51.692Z,62.55
2017-06-01T09:36:51.381Z,63.39
2017-06-01T09:37:51.368Z,63.39
2017-06-01T09:38:51.674Z,63.49
2017-06-01T09:39:51.662Z,64.46
2017-06-01T09:40:51.662Z,63.32
2017-06-01T09:41:51.673Z,64.11
2017-06-01T09:42:51.660Z,62.97
2017-06-01T09:43:51.339Z,62.1
2017-06-01T09:44:51.651Z,61.54
2017-06-01T09:45:51.651Z,61.64
2017-06-01T09:46:51.663Z,63.9
2017-06-01T09:47:51.691Z,61.57
2017-06-01T09:48:51.631Z,60.11
2017-06-01T09:49:51.638Z,61.41
2017-06-01T09:50:51.641Z,62.38
2017-06-01T09:51:51.370Z,62.68
2017-06-01T09:52:51.622Z,61.44
2017-06-01T09:53:51.682Z,61.9
2017-06-01T09:54:51.611Z,61.48
2017-06-01T09:55:51.614Z,62
2017-06-01T09:56:51.612Z,62.32
2017-06-01T09:57:51.611Z,64.56
2017-06-01T09:58:51.806Z,65.92
2017-06-01T09:59:51.599Z,66.05
2017-06-01T10:00:51.591Z,63.01
2017-06-01T10:01:51.598Z,63.88
2017-06-01T10:02:51.278Z,63.52
2017-06-01T10:03:51.582Z,61.71
2017-06-01T10:04:51.260Z,61.32
2017-06-01T10:05:51.266Z,63.17
2017-06-01T10:06:51.569Z,64.23
2017-06-01T10:07:51.273Z,62.93
2017-06-01T10:08:51.571Z,62.06
2017-06-01T10:09:51.241Z,61.7
2017-06-01T10:10:51.560Z,61.31
2017-06-01T10:11:51.244Z,61.9
2017-06-01T10:12:51.237Z,62.51
2017-06-01T10:13:51.231Z,61.18
2017-06-01T10:14:51.640Z,60.2
2017-06-01T10:15:51.534Z,60.3
2017-06-01T10:16:51.297Z,60.2
2017-06-01T10:17:51.521Z,60
2017-06-01T10:18:51.523Z,60.1
2017-06-01T10:19:51.513Z,59.81
2017-06-01T10:20:51.591Z,59.88
2017-06-01T10:21:51.191Z,59.98
2017-06-01T10:22:51.210Z,60.08
2017-06-01T10:23:51.491Z,61.27
2017-06-01T10:24:51.209Z,61.08
2017-06-01T10:25:51.496Z,60.23
2017-06-01T10:26:51.481Z,59.26
2017-06-01T10:27:51.493Z,57.7
2017-06-01T10:28:51.223Z,58.45
2017-06-01T10:29:51.473Z,59.13
2017-06-01T10:30:51.471Z,58.84
2017-06-01T10:31:51.456Z,60.49
2017-06-01T10:32:51.453Z,59.94
2017-06-01T10:33:51.470Z,58.77
2017-06-01T10:34:51.146Z,58.94
2017-06-01T10:35:51.143Z,59.74
2017-06-01T10:36:51.122Z,59.64
2017-06-01T10:37:51.444Z,59.26
2017-06-01T10:38:51.421Z,59.38
2017-06-01T10:39:51.120Z,59.19
2017-06-01T10:40:51.413Z,57.63
2017-06-01T10:41:51.098Z,57.5
2017-06-01T10:42:51.097Z,57.89
2017-06-01T10:43:51.399Z,58.09
2017-06-01T10:44:51.092Z,57.21
2017-06-01T10:45:51.380Z,59.78
2017-06-01T10:46:51.372Z,60.98
2017-06-01T10:47:51.379Z,60.42
2017-06-01T10:48:51.371Z,60.52
2017-06-01T10:49:51.056Z,57.99
2017-06-01T10:50:51.042Z,57.4
2017-06-01T10:51:51.374Z,56.65
2017-06-01T10:52:51.021Z,57.73
2017-06-01T10:53:51.429Z,56.65
2017-06-01T10:54:51.315Z,56.65
2017-06-01T10:55:51.379Z,58.38
2017-06-01T10:56:51.360Z,59.64
2017-06-01T10:57:51.353Z,58.02
2017-06-01T10:58:51.310Z,57.99
2017-06-01T10:59:51.302Z,57.99
2017-06-01T11:00:51.329Z,57.6
2017-06-01T11:01:51.274Z,56.56
2017-06-01T11:02:50.963Z,57.82
2017-06-01T11:03:51.311Z,57.43
2017-06-01T11:04:50.949Z,56.75
2017-06-01T11:05:51.259Z,57.57
2017-06-01T11:06:51.254Z,57.76
2017-06-01T11:07:51.237Z,57.67
2017-06-01T11:08:51.253Z,57.31
2017-06-01T11:09:51.238Z,56.23
2017-06-01T11:10:51.223Z,57.21
2017-06-01T11:11:51.202Z,57.99
2017-06-01T11:12:50.900Z,57.43
2017-06-01T11:13:51.190Z,57.92
2017-06-01T11:14:51.186Z,58.63
2017-06-01T11:15:50.879Z,58.14
2017-06-01T11:16:51.186Z,57.36
2017-06-01T11:17:51.171Z,56.38
2017-06-01T11:18:51.170Z,57.75
2017-06-01T11:19:51.146Z,57.2
2017-06-01T11:20:50.842Z,58.47
2017-06-01T11:21:50.831Z,58.07
2017-06-01T11:22:51.131Z,57.88
2017-06-01T11:23:51.130Z,57.62
2017-06-01T11:24:51.117Z,56.25
2017-06-01T11:25:50.805Z,56.25
2017-06-01T11:26:50.807Z,56.74
2017-06-01T11:27:51.099Z,57.52
2017-06-01T11:28:51.194Z,56.35
2017-06-01T11:29:50.782Z,55.63
2017-06-01T11:30:51.086Z,55.63
2017-06-01T11:31:51.081Z,56.2
2017-06-01T11:32:50.760Z,58.31
2017-06-01T11:33:51.053Z,57.85
2017-06-01T11:34:51.100Z,58.63
2017-06-01T11:35:51.152Z,57.88
2017-06-01T11:36:51.142Z,58.47
2017-06-01T11:37:51.082Z,56.54
2017-06-01T11:38:51.126Z,57.26
2017-06-01T11:39:50.724Z,58.44
2017-06-01T11:40:51.069Z,58.04
2017-06-01T11:41:51.011Z,57.78
2017-06-01T11:42:50.701Z,58.14
2017-06-01T11:43:50.682Z,57.88
2017-06-01T11:44:50.994Z,56.81
2017-06-01T11:45:50.992Z,56.32
2017-06-01T11:46:50.666Z,56.2
2017-06-01T11:47:50.963Z,56.48
2017-06-01T11:48:50.964Z,57.26
2017-06-01T11:49:50.646Z,57.59
2017-06-01T11:50:50.944Z,58.07
2017-06-01T11:51:50.942Z,57.68
2017-06-01T11:52:50.931Z,56.84
2017-06-01T11:53:50.921Z,57.71
2017-06-01T11:54:50.921Z,55.47
2017-06-01T11:55:50.726Z,55.57
2017-06-01T11:56:50.903Z,56.45
2017-06-01T11:57:50.592Z,55.27
2017-06-01T11:58:50.890Z,55.27
2017-06-01T11:59:50.578Z,55.57
2017-06-01T12:00:50.570Z,55.76
2017-06-01T12:01:50.576Z,54.1
2017-06-01T12:02:50.862Z,55.51
2017-06-01T12:03:50.859Z,55.36
2017-06-01T12:04:50.853Z,55.36
2017-06-01T12:05:50.852Z,56.14
2017-06-01T12:06:50.843Z,55.38
2017-06-01T12:07:50.890Z,56.4
2017-06-01T12:08:50.933Z,57.64
2017-06-01T12:09:50.817Z,59.59
2017-06-01T12:10:50.804Z,59.3
2017-06-01T12:11:50.496Z,59.13
2017-06-01T12:12:50.863Z,58.48
2017-06-01T12:13:50.801Z,58.5
2017-06-01T12:14:50.787Z,57.63
2017-06-01T12:15:50.779Z,57.36
2017-06-01T12:16:50.779Z,56.38
2017-06-01T12:17:50.463Z,56.29
2017-06-01T12:18:50.452Z,55.22
2017-06-01T12:19:50.750Z,54.6
2017-06-01T12:20:50.740Z,55.22
2017-06-01T12:21:50.752Z,55.16
2017-06-01T12:22:50.731Z,56.33
2017-06-01T12:23:50.730Z,57.5
2017-06-01T12:24:50.730Z,56.65
2017-06-01T12:25:50.722Z,56.26
2017-06-01T12:26:50.709Z,54.9
2017-06-01T12:27:50.705Z,54.5
2017-06-01T12:28:50.704Z,57.04
2017-06-01T12:29:50.691Z,58.12
2017-06-01T12:30:50.693Z,57.73
2017-06-01T12:31:50.673Z,55.68
2017-06-01T12:32:50.669Z,54.99
2017-06-01T12:33:50.656Z,55.48
2017-06-01T12:34:50.652Z,56.52
2017-06-01T12:35:50.638Z,57.34
2017-06-01T12:36:50.630Z,57.53
2017-06-01T12:37:50.631Z,55.38
2017-06-01T12:38:50.622Z,54.93
2017-06-01T12:39:50.624Z,55.19
2017-06-01T12:40:50.612Z,55.09
2017-06-01T12:41:50.602Z,55.29
2017-06-01T12:42:50.592Z,55.38
2017-06-01T12:43:50.593Z,56.36
2017-06-01T12:44:50.583Z,55.29
2017-06-01T12:45:50.578Z,56.36
2017-06-01T12:46:50.573Z,56.36
2017-06-01T12:47:50.262Z,56.46
2017-06-01T12:48:50.557Z,55.61
2017-06-01T12:49:50.545Z,55.12
2017-06-01T12:50:50.542Z,54.05
2017-06-01T12:51:50.224Z,53.36
2017-06-01T12:52:50.522Z,54.7
2017-06-01T12:53:50.554Z,56.16
2017-06-01T12:54:50.506Z,55.68